Terminal Aerodrome Forecast
Issued by NWS Central Illinois

Home | Current Version | Previous Version | Text Only | Print | Product List | Glossary On
Versions: 1 2 3 4 5 6 7 8 9 10 11 12 13 14 15 16 17 18 19 20 21
000
FTUS43 KILX 271746
TAFSPI
TAF
KSPI 271746Z 2718/2818 17014G22KT P6SM VCSH BKN015 OVC080
      TEMPO 2718/2720 SCT015 OVC080
     FM272000 17014G20KT P6SM VCTS SCT025CB OVC050
     FM280100 18010KT P6SM -RA VCTS OVC025CB
     FM280800 18009KT P6SM VCSH SCT025 OVC050
     FM281500 20012G18KT P6SM VCTS SCT025CB BKN070=

USA.gov is the U.S. government's official web portal to all federal, state and local government web resources and services.